createdAt,value
2023-11-02T00:00:00.646Z,10.33
2023-11-02T00:02:30.973Z,10.34
2023-11-02T00:04:59.492Z,10.37
2023-11-02T00:07:32.283Z,10.37
2023-11-02T00:10:00.570Z,10.40
2023-11-02T00:12:30.782Z,10.42
2023-11-02T00:15:01.347Z,10.42
2023-11-02T00:18:02.666Z,10.42
2023-11-02T00:20:39.412Z,10.37
2023-11-02T00:23:08.784Z,10.41
2023-11-02T00:25:53.527Z,10.38
2023-11-02T00:28:21.848Z,10.38
2023-11-02T00:30:52.224Z,10.38
2023-11-02T00:33:23.401Z,10.38
2023-11-02T00:35:52.456Z,10.38
2023-11-02T00:38:27.549Z,10.39
2023-11-02T00:40:57.205Z,10.39
2023-11-02T00:43:26.151Z,10.34
2023-11-02T00:45:55.314Z,10.31
2023-11-02T00:48:29.788Z,10.27
2023-11-02T00:51:15.406Z,10.24
2023-11-02T00:53:46.923Z,10.19
2023-11-02T00:56:17.823Z,10.15
2023-11-02T00:58:49.144Z,10.09
2023-11-02T01:01:19.449Z,10.07
2023-11-02T01:03:51.704Z,10.05
2023-11-02T01:06:23.049Z,10.01
2023-11-02T01:08:57.092Z,10.02
2023-11-02T01:11:30.015Z,9.99
2023-11-02T01:13:58.553Z,9.99
2023-11-02T01:16:29.127Z,9.98
2023-11-02T01:19:00.292Z,10.01
2023-11-02T01:21:31.560Z,10.01
2023-11-02T01:24:08.853Z,10.01
2023-11-02T01:27:02.336Z,10.03
2023-11-02T01:29:32.108Z,10.02
2023-11-02T01:32:02.148Z,10.00
2023-11-02T01:34:31.699Z,10.01
2023-11-02T01:36:59.802Z,10.01
2023-11-02T01:40:09.319Z,10.03
2023-11-02T01:42:44.344Z,10.03
2023-11-02T01:45:17.574Z,10.04
2023-11-02T01:48:11.925Z,10.02
2023-11-02T01:50:48.707Z,10.04
2023-11-02T01:53:30.151Z,10.05
2023-11-02T01:56:09.425Z,10.04
2023-11-02T01:58:48.863Z,10.03
2023-11-02T02:01:24.778Z,10.06
2023-11-02T02:04:03.832Z,10.11
2023-11-02T02:06:42.690Z,10.15
2023-11-02T02:09:26.725Z,10.20
2023-11-02T02:12:06.780Z,10.25
2023-11-02T02:14:47.977Z,10.29
2023-11-02T02:17:21.894Z,10.31
2023-11-02T02:20:02.729Z,10.32
2023-11-02T02:22:39.266Z,10.33
2023-11-02T02:25:19.568Z,10.33
2023-11-02T02:28:20.699Z,10.31
2023-11-02T02:31:09.340Z,10.27
2023-11-02T02:33:57.710Z,10.27
2023-11-02T02:36:36.669Z,10.23
2023-11-02T02:39:07.227Z,10.21
2023-11-02T02:41:40.356Z,10.23
2023-11-02T02:44:11.305Z,10.25
2023-11-02T02:46:41.086Z,10.25
2023-11-02T02:49:09.433Z,10.26
2023-11-02T02:51:42.810Z,10.23
2023-11-02T02:54:14.464Z,10.16
2023-11-02T02:56:45.003Z,10.13
2023-11-02T02:59:18.637Z,10.12
2023-11-02T03:01:49.505Z,10.09
2023-11-02T03:04:20.416Z,10.04
2023-11-02T03:06:52.641Z,10.03
2023-11-02T03:09:23.715Z,10.02
2023-11-02T03:11:55.597Z,10.01
2023-11-02T03:14:25.081Z,10.00
2023-11-02T03:17:02.200Z,10.00
2023-11-02T03:19:51.279Z,10.01
2023-11-02T03:22:22.614Z,10.03
2023-11-02T03:25:07.736Z,10.05
2023-11-02T03:27:49.105Z,10.09
2023-11-02T03:30:23.146Z,10.14
2023-11-02T03:33:01.500Z,10.16
2023-11-02T03:35:36.420Z,10.20
2023-11-02T03:38:23.450Z,10.23
2023-11-02T03:41:06.911Z,10.28
2023-11-02T03:43:43.708Z,10.24
2023-11-02T03:46:21.114Z,10.22
2023-11-02T03:48:59.937Z,10.23
2023-11-02T03:51:39.669Z,10.26
2023-11-02T03:54:23.009Z,10.31
2023-11-02T03:57:04.765Z,10.34
2023-11-02T03:59:57.707Z,10.39
2023-11-02T04:02:31.363Z,10.44
2023-11-02T04:05:13.794Z,10.43
2023-11-02T04:07:56.020Z,10.37
2023-11-02T04:10:28.519Z,10.31
2023-11-02T04:13:06.607Z,10.30
2023-11-02T04:15:34.889Z,10.29
2023-11-02T04:18:03.796Z,10.31
2023-11-02T04:20:32.006Z,10.32
2023-11-02T04:23:00.507Z,10.33
2023-11-02T04:25:30.533Z,10.39
2023-11-02T04:28:01.527Z,10.43
2023-11-02T04:30:29.868Z,10.40
2023-11-02T04:32:58.169Z,10.35
2023-11-02T04:35:26.357Z,10.34
2023-11-02T04:38:05.663Z,10.38
2023-11-02T04:40:35.282Z,10.42
2023-11-02T04:43:03.846Z,10.37
2023-11-02T04:45:32.474Z,10.33
2023-11-02T04:48:00.663Z,10.27
2023-11-02T04:50:29.731Z,10.27
2023-11-02T04:52:57.901Z,10.28
2023-11-02T04:55:26.066Z,10.35
2023-11-02T04:57:55.608Z,10.41
2023-11-02T05:00:24.385Z,10.44
2023-11-02T05:02:52.608Z,10.47
2023-11-02T05:05:21.213Z,10.50
2023-11-02T05:07:49.315Z,10.51
2023-11-02T05:10:17.433Z,10.56
2023-11-02T05:12:46.624Z,10.64
2023-11-02T05:15:17.126Z,10.71
2023-11-02T05:17:45.316Z,10.74
2023-11-02T05:20:13.445Z,10.70
2023-11-02T05:22:41.791Z,10.61
2023-11-02T05:25:10.177Z,10.56
2023-11-02T05:27:38.315Z,10.51
2023-11-02T05:30:08.710Z,10.46
2023-11-02T05:32:39.873Z,10.43
2023-11-02T05:35:10.637Z,10.36
2023-11-02T05:37:39.009Z,10.33
2023-11-02T05:40:08.981Z,10.29
2023-11-02T05:42:37.339Z,10.25
2023-11-02T05:45:06.687Z,10.20
2023-11-02T05:47:34.833Z,10.24
2023-11-02T05:50:04.631Z,10.30
2023-11-02T05:52:33.011Z,10.41
2023-11-02T05:55:01.353Z,10.42
2023-11-02T05:57:29.634Z,10.41
2023-11-02T05:59:58.547Z,10.45
2023-11-02T06:02:26.993Z,10.51
2023-11-02T06:04:55.281Z,10.64
2023-11-02T06:07:25.105Z,10.72
2023-11-02T06:09:53.341Z,10.75
2023-11-02T06:12:23.844Z,10.76
2023-11-02T06:14:52.126Z,10.71
2023-11-02T06:17:19.542Z,10.72
2023-11-02T06:19:47.847Z,10.71
2023-11-02T06:22:16.131Z,10.76
2023-11-02T06:24:46.835Z,10.84
2023-11-02T06:27:15.234Z,10.78
2023-11-02T06:29:43.449Z,10.75
2023-11-02T06:32:11.573Z,10.74
2023-11-02T06:34:40.967Z,10.72
2023-11-02T06:37:10.116Z,10.70
2023-11-02T06:39:38.640Z,10.69
2023-11-02T06:42:09.423Z,10.66
2023-11-02T06:44:40.531Z,10.61
2023-11-02T06:47:09.020Z,10.58
2023-11-02T06:49:37.151Z,10.52
2023-11-02T06:52:06.304Z,10.43
2023-11-02T06:54:34.757Z,10.41
2023-11-02T06:57:03.895Z,10.38
2023-11-02T06:59:33.485Z,10.42
2023-11-02T07:02:01.614Z,10.45
2023-11-02T07:04:29.901Z,10.47
2023-11-02T07:06:58.105Z,10.48
2023-11-02T07:09:26.279Z,10.51
2023-11-02T07:11:54.475Z,10.56
2023-11-02T07:14:23.106Z,10.60
2023-11-02T07:16:52.606Z,10.66
2023-11-02T07:19:20.881Z,10.75
2023-11-02T07:21:49.141Z,10.80
2023-11-02T07:24:18.230Z,10.82
2023-11-02T07:26:46.482Z,10.83
2023-11-02T07:29:14.804Z,10.80
2023-11-02T07:31:43.735Z,10.81
2023-11-02T07:34:14.782Z,10.85
2023-11-02T07:36:43.053Z,10.84
2023-11-02T07:39:14.291Z,10.86
2023-11-02T07:41:43.125Z,10.90
2023-11-02T07:44:11.384Z,11.01
2023-11-02T07:46:39.703Z,11.13
2023-11-02T07:49:08.080Z,11.28
2023-11-02T07:51:37.927Z,11.41
2023-11-02T07:54:08.581Z,11.49
2023-11-02T07:56:37.638Z,11.59
2023-11-02T07:59:06.011Z,11.69
2023-11-02T08:01:34.334Z,11.75
2023-11-02T08:04:03.612Z,11.85
2023-11-02T08:06:33.281Z,11.89
2023-11-02T08:09:03.080Z,11.93
2023-11-02T08:11:31.345Z,11.96
2023-11-02T08:13:59.578Z,11.97
2023-11-02T08:16:27.839Z,11.97
2023-11-02T08:18:56.028Z,11.99
2023-11-02T08:21:24.313Z,11.97
2023-11-02T08:23:52.538Z,11.93
2023-11-02T08:26:24.424Z,11.93
2023-11-02T08:28:53.746Z,11.93
2023-11-02T08:31:25.530Z,11.94
2023-11-02T08:33:54.095Z,11.95
2023-11-02T08:36:22.928Z,12.00
2023-11-02T08:38:51.264Z,12.04
2023-11-02T08:41:22.750Z,12.10
2023-11-02T08:43:52.003Z,12.18
2023-11-02T08:46:21.755Z,12.25
2023-11-02T08:48:51.306Z,12.35
2023-11-02T08:51:20.973Z,12.43
2023-11-02T08:53:49.673Z,12.43
2023-11-02T08:56:18.085Z,12.35
2023-11-02T08:58:49.169Z,12.31
2023-11-02T09:01:21.936Z,12.29
2023-11-02T09:03:52.610Z,12.24
2023-11-02T09:06:21.819Z,12.20
2023-11-02T09:08:50.952Z,12.19
2023-11-02T09:11:20.650Z,12.16
2023-11-02T09:13:50.361Z,12.14
2023-11-02T09:16:18.655Z,12.09
2023-11-02T09:18:47.116Z,12.08
2023-11-02T09:21:15.578Z,12.12
2023-11-02T09:23:45.395Z,12.19
2023-11-02T09:26:14.172Z,12.24
2023-11-02T09:28:42.452Z,12.24
2023-11-02T09:31:14.252Z,12.19
2023-11-02T09:33:42.685Z,12.17
2023-11-02T09:36:11.541Z,12.22
2023-11-02T09:38:39.858Z,12.26
2023-11-02T09:41:08.401Z,12.25
2023-11-02T09:43:37.225Z,12.13
2023-11-02T09:46:06.204Z,12.09
2023-11-02T09:48:35.941Z,12.12
2023-11-02T09:51:04.416Z,12.01
2023-11-02T09:53:33.383Z,11.79
2023-11-02T09:56:02.332Z,11.53
2023-11-02T09:58:31.500Z,11.41
2023-11-02T10:01:01.665Z,11.36
2023-11-02T10:03:30.008Z,11.36
2023-11-02T10:05:59.754Z,11.35
2023-11-02T10:08:28.008Z,11.38
2023-11-02T10:11:12.372Z,11.39
2023-11-02T10:13:40.875Z,11.43
2023-11-02T10:16:10.022Z,11.42
2023-11-02T10:18:38.359Z,11.41
2023-11-02T10:21:10.057Z,11.43
2023-11-02T10:23:56.587Z,11.52
2023-11-02T10:26:27.064Z,11.61
2023-11-02T10:28:57.010Z,11.72
2023-11-02T10:31:28.817Z,11.85
2023-11-02T10:33:57.738Z,11.96
2023-11-02T10:36:27.694Z,12.06
2023-11-02T10:38:57.714Z,12.13
2023-11-02T10:41:27.773Z,12.17
2023-11-02T10:43:59.285Z,12.22
2023-11-02T10:46:29.166Z,12.28
2023-11-02T10:49:01.502Z,12.34
2023-11-02T10:51:32.190Z,12.38
2023-11-02T10:54:11.378Z,12.40
2023-11-02T10:56:43.445Z,12.33
2023-11-02T10:59:12.876Z,12.21
2023-11-02T11:01:41.137Z,12.13
2023-11-02T11:04:12.435Z,12.10
2023-11-02T11:06:44.144Z,12.07
2023-11-02T11:09:14.138Z,12.08
2023-11-02T11:11:43.209Z,12.09
2023-11-02T11:14:11.550Z,12.07
2023-11-02T11:16:43.015Z,12.05
2023-11-02T11:19:12.429Z,12.03
2023-11-02T11:21:44.669Z,12.03
2023-11-02T11:24:17.609Z,12.03
2023-11-02T11:26:48.953Z,12.00
2023-11-02T11:29:39.982Z,11.88
2023-11-02T11:32:10.387Z,11.82
2023-11-02T11:35:18.372Z,11.77
2023-11-02T11:37:51.142Z,11.70
2023-11-02T11:40:33.745Z,11.69
2023-11-02T11:43:09.923Z,11.72
2023-11-02T11:45:39.598Z,11.75
2023-11-02T11:48:09.769Z,11.78
2023-11-02T11:50:40.189Z,11.79
2023-11-02T11:53:20.031Z,11.79
2023-11-02T11:55:49.879Z,11.84
2023-11-02T11:58:20.338Z,11.77
2023-11-02T12:01:18.603Z,11.75
2023-11-02T12:03:48.574Z,11.75
2023-11-02T12:06:18.147Z,11.78
2023-11-02T12:08:50.265Z,11.78
2023-11-02T12:11:25.277Z,11.78
2023-11-02T12:13:56.516Z,11.80
2023-11-02T12:16:31.732Z,11.86
2023-11-02T12:19:00.511Z,11.91
2023-11-02T12:21:29.059Z,11.89
2023-11-02T12:23:58.916Z,11.88
2023-11-02T12:26:28.851Z,11.79
2023-11-02T12:28:58.884Z,11.70
2023-11-02T12:31:29.439Z,11.67
2023-11-02T12:33:57.753Z,11.59
2023-11-02T12:36:26.380Z,11.57
2023-11-02T12:38:55.408Z,11.55
2023-11-02T12:41:29.382Z,11.54
2023-11-02T12:44:08.417Z,11.50
2023-11-02T12:46:39.284Z,11.47
2023-11-02T12:49:20.662Z,11.48
2023-11-02T12:52:05.886Z,11.57
2023-11-02T12:54:34.742Z,11.66
2023-11-02T12:57:06.903Z,11.76
2023-11-02T12:59:38.901Z,11.79
2023-11-02T13:02:07.794Z,11.79
2023-11-02T13:04:54.242Z,11.80
2023-11-02T13:07:24.730Z,11.77
2023-11-02T13:10:03.463Z,11.78
2023-11-02T13:12:35.037Z,11.77
2023-11-02T13:15:06.801Z,11.80
2023-11-02T13:17:35.108Z,11.76
2023-11-02T13:20:04.910Z,11.73
2023-11-02T13:22:32.992Z,11.72
2023-11-02T13:25:01.540Z,11.72
2023-11-02T13:27:30.455Z,11.74
2023-11-02T13:30:00.718Z,11.79
2023-11-02T13:32:30.517Z,11.81
2023-11-02T13:34:58.960Z,11.79
2023-11-02T13:37:28.299Z,11.73
2023-11-02T13:39:56.576Z,11.67
2023-11-02T13:42:24.851Z,11.63
2023-11-02T13:44:53.490Z,11.55
2023-11-02T13:47:24.594Z,11.48
2023-11-02T13:49:53.107Z,11.42
2023-11-02T13:52:21.788Z,11.36
2023-11-02T13:54:50.079Z,11.32
2023-11-02T13:57:18.389Z,11.35
2023-11-02T13:59:46.500Z,11.35
2023-11-02T14:02:16.717Z,11.33
2023-11-02T14:04:47.330Z,11.31
2023-11-02T14:07:17.549Z,11.28
2023-11-02T14:09:45.906Z,11.27
2023-11-02T14:12:14.023Z,11.25
2023-11-02T14:14:42.128Z,11.26
2023-11-02T14:17:10.374Z,11.29
2023-11-02T14:19:38.634Z,11.29
2023-11-02T14:22:09.196Z,11.25
2023-11-02T14:24:37.330Z,11.21
2023-11-02T14:27:05.667Z,11.14
2023-11-02T14:29:34.134Z,11.06
2023-11-02T14:32:02.281Z,11.03
2023-11-02T14:34:30.596Z,10.98
2023-11-02T14:36:59.193Z,10.97
2023-11-02T14:39:28.996Z,10.98
2023-11-02T14:41:57.429Z,11.02
2023-11-02T14:44:25.684Z,11.06
2023-11-02T14:46:53.856Z,11.11
2023-11-02T14:49:22.106Z,11.11
2023-11-02T14:51:50.863Z,11.10
2023-11-02T14:54:19.636Z,11.08
2023-11-02T14:56:49.386Z,11.08
2023-11-02T14:59:18.319Z,11.10
2023-11-02T15:01:46.465Z,11.13
2023-11-02T15:04:16.636Z,11.12
2023-11-02T15:06:45.388Z,11.11
2023-11-02T15:09:16.435Z,11.08
2023-11-02T15:11:44.780Z,11.04
2023-11-02T15:14:15.507Z,11.12
2023-11-02T15:16:45.910Z,11.23
2023-11-02T15:19:14.294Z,11.25
2023-11-02T15:21:46.520Z,11.25
2023-11-02T15:24:14.931Z,11.27
2023-11-02T15:26:43.345Z,11.25
2023-11-02T15:29:12.629Z,11.21
2023-11-02T15:31:42.226Z,11.16
2023-11-02T15:34:10.433Z,11.11
2023-11-02T15:36:39.389Z,11.08
2023-11-02T15:39:11.419Z,10.99
2023-11-02T15:41:39.902Z,10.87
2023-11-02T15:44:08.655Z,10.85
2023-11-02T15:46:42.466Z,10.88
2023-11-02T15:49:11.168Z,10.90
2023-11-02T15:51:44.406Z,10.95
2023-11-02T15:54:13.410Z,11.02
2023-11-02T15:56:41.678Z,11.07
2023-11-02T15:59:10.279Z,11.10
2023-11-02T16:01:38.519Z,11.11
2023-11-02T16:04:09.334Z,11.09
2023-11-02T16:06:38.307Z,10.99
2023-11-02T16:09:06.688Z,10.92
2023-11-02T16:11:34.825Z,10.86
2023-11-02T16:14:04.680Z,10.84
2023-11-02T16:16:32.998Z,10.81
2023-11-02T16:19:01.227Z,10.83
2023-11-02T16:21:31.031Z,10.87
2023-11-02T16:23:59.332Z,10.81
2023-11-02T16:26:27.545Z,10.73
2023-11-02T16:28:57.443Z,10.65
2023-11-02T16:31:26.322Z,10.59
2023-11-02T16:33:55.103Z,10.54
2023-11-02T16:36:45.053Z,10.49
2023-11-02T16:39:13.877Z,10.46
2023-11-02T16:41:46.428Z,10.40
2023-11-02T16:44:15.886Z,10.34
2023-11-02T16:46:44.849Z,10.34
2023-11-02T16:49:13.582Z,10.38
2023-11-02T16:51:44.296Z,10.38
2023-11-02T16:54:12.805Z,10.43
2023-11-02T16:56:41.851Z,10.46
2023-11-02T16:59:11.686Z,10.40
2023-11-02T17:01:40.377Z,10.27
2023-11-02T17:04:09.735Z,10.17
2023-11-02T17:06:38.262Z,10.15
2023-11-02T17:09:10.216Z,10.16
2023-11-02T17:11:39.362Z,10.19
2023-11-02T17:14:08.144Z,10.18
2023-11-02T17:16:36.553Z,10.28
2023-11-02T17:19:05.478Z,10.33
2023-11-02T17:21:33.815Z,10.31
2023-11-02T17:24:02.096Z,10.32
2023-11-02T17:26:31.755Z,10.36
2023-11-02T17:29:00.876Z,10.37
2023-11-02T17:31:30.451Z,10.28
2023-11-02T17:33:58.802Z,10.17
2023-11-02T17:36:29.330Z,10.08
2023-11-02T17:39:00.621Z,10.02
2023-11-02T17:41:31.055Z,9.96
2023-11-02T17:44:00.723Z,9.92
2023-11-02T17:46:29.220Z,9.86
2023-11-02T17:48:57.491Z,9.81
2023-11-02T17:51:26.636Z,9.80
2023-11-02T17:53:55.195Z,9.72
2023-11-02T17:56:23.444Z,9.66
2023-11-02T17:58:51.544Z,9.67
2023-11-02T18:01:21.923Z,9.71
2023-11-02T18:03:50.068Z,9.74
2023-11-02T18:06:19.152Z,9.65
2023-11-02T18:08:47.486Z,9.59
2023-11-02T18:11:15.763Z,9.54
2023-11-02T18:13:44.030Z,9.51
2023-11-02T18:16:15.296Z,9.46
2023-11-02T18:18:44.911Z,9.39
2023-11-02T18:21:13.366Z,9.35
2023-11-02T18:23:41.610Z,9.32
2023-11-02T18:26:13.719Z,9.27
2023-11-02T18:28:41.977Z,9.22
2023-11-02T18:31:10.267Z,9.24
2023-11-02T18:33:39.342Z,9.23
2023-11-02T18:36:11.954Z,9.23
2023-11-02T18:38:40.369Z,9.25
2023-11-02T18:41:08.699Z,9.25
2023-11-02T18:43:38.486Z,9.24
2023-11-02T18:46:07.287Z,9.20
2023-11-02T18:48:35.500Z,9.18
2023-11-02T18:51:06.054Z,9.08
2023-11-02T18:53:35.779Z,9.02
2023-11-02T18:56:05.263Z,8.94
2023-11-02T18:58:33.493Z,8.92
2023-11-02T19:01:01.832Z,8.85
2023-11-02T19:03:30.303Z,8.79
2023-11-02T19:05:58.765Z,8.78
2023-11-02T19:08:27.583Z,8.77
2023-11-02T19:11:00.982Z,8.81
2023-11-02T19:13:31.682Z,8.84
2023-11-02T19:16:00.123Z,8.87
2023-11-02T19:18:28.480Z,8.88
2023-11-02T19:20:58.477Z,8.86
2023-11-02T19:23:28.131Z,8.86
2023-11-02T19:25:57.956Z,9.02
2023-11-02T19:28:26.256Z,9.07
2023-11-02T19:30:54.694Z,9.11
2023-11-02T19:33:23.039Z,9.08
2023-11-02T19:35:51.538Z,8.99
2023-11-02T19:38:21.653Z,8.96
2023-11-02T19:40:50.015Z,8.94
2023-11-02T19:43:25.272Z,8.96
2023-11-02T19:45:53.803Z,8.97
2023-11-02T19:48:22.852Z,8.95
2023-11-02T19:50:53.042Z,8.93
2023-11-02T19:53:21.678Z,8.92
2023-11-02T19:55:49.939Z,8.93
2023-11-02T19:58:19.873Z,8.94
2023-11-02T20:00:49.432Z,9.01
2023-11-02T20:03:17.747Z,9.12
2023-11-02T20:05:46.491Z,9.21
2023-11-02T20:08:14.695Z,9.29
2023-11-02T20:10:42.912Z,9.39
2023-11-02T20:13:11.081Z,9.48
2023-11-02T20:15:40.869Z,9.53
2023-11-02T20:18:09.132Z,9.55
2023-11-02T20:20:38.169Z,9.51
2023-11-02T20:23:07.133Z,9.49
2023-11-02T20:25:36.406Z,9.42
2023-11-02T20:28:05.413Z,9.42
2023-11-02T20:30:34.695Z,9.44
2023-11-02T20:33:04.420Z,9.42
2023-11-02T20:35:32.564Z,9.28
2023-11-02T20:38:00.681Z,9.18
2023-11-02T20:40:28.787Z,9.17
2023-11-02T20:42:56.897Z,9.15
2023-11-02T20:45:25.061Z,9.10
2023-11-02T20:47:53.302Z,9.11
2023-11-02T20:50:22.875Z,9.16
2023-11-02T20:52:51.017Z,9.19
2023-11-02T20:55:19.214Z,9.29
2023-11-02T20:57:47.841Z,9.42
2023-11-02T21:00:21.805Z,9.56
2023-11-02T21:02:51.302Z,9.65
2023-11-02T21:05:20.128Z,9.76
2023-11-02T21:07:50.274Z,9.79
2023-11-02T21:10:18.562Z,9.79
2023-11-02T21:12:46.834Z,9.83
2023-11-02T21:15:14.990Z,9.87
2023-11-02T21:17:43.229Z,9.85
2023-11-02T21:20:12.539Z,9.81
2023-11-02T21:22:40.764Z,9.76
2023-11-02T21:25:11.257Z,9.67
2023-11-02T21:27:40.542Z,9.53
2023-11-02T21:30:10.901Z,9.40
2023-11-02T21:32:39.145Z,9.33
2023-11-02T21:35:08.671Z,9.28
2023-11-02T21:37:36.920Z,9.24
2023-11-02T21:40:06.668Z,9.25
2023-11-02T21:42:36.447Z,9.26
2023-11-02T21:45:05.938Z,9.27
2023-11-02T21:47:34.265Z,9.29
2023-11-02T21:50:02.403Z,9.36
2023-11-02T21:52:30.565Z,9.38
2023-11-02T21:54:58.757Z,9.41
2023-11-02T21:57:26.859Z,9.41
2023-11-02T21:59:56.401Z,9.38
2023-11-02T22:02:24.511Z,9.32
2023-11-02T22:04:52.720Z,9.25
2023-11-02T22:07:20.880Z,9.18
2023-11-02T22:09:51.362Z,9.12
2023-11-02T22:12:19.522Z,9.09
2023-11-02T22:14:47.933Z,9.17
2023-11-02T22:17:17.478Z,9.19
2023-11-02T22:19:46.062Z,9.30
2023-11-02T22:22:15.632Z,9.40
2023-11-02T22:24:43.832Z,9.51
2023-11-02T22:27:12.295Z,9.54
2023-11-02T22:29:42.185Z,9.50
2023-11-02T22:32:10.718Z,9.46
2023-11-02T22:34:40.267Z,9.38
2023-11-02T22:37:08.681Z,9.31
2023-11-02T22:39:37.118Z,9.27
2023-11-02T22:42:06.235Z,9.31
2023-11-02T22:44:34.945Z,9.37
2023-11-02T22:47:03.322Z,9.41
2023-11-02T22:49:31.473Z,9.44
2023-11-02T22:52:01.098Z,9.48
2023-11-02T22:54:29.240Z,9.49
2023-11-02T22:56:57.317Z,9.46
2023-11-02T22:59:25.409Z,9.45
2023-11-02T23:01:55.591Z,9.48
2023-11-02T23:04:24.974Z,9.50
2023-11-02T23:06:53.193Z,9.60
2023-11-02T23:09:22.761Z,9.68
2023-11-02T23:11:51.038Z,9.76
2023-11-02T23:14:19.146Z,9.84
2023-11-02T23:16:47.323Z,9.93
2023-11-02T23:19:15.934Z,9.97
2023-11-02T23:21:44.337Z,10.00
2023-11-02T23:24:12.442Z,10.06
2023-11-02T23:26:42.518Z,10.05
2023-11-02T23:29:10.695Z,10.06
2023-11-02T23:31:39.474Z,10.07
2023-11-02T23:34:08.049Z,10.03
2023-11-02T23:36:36.295Z,9.97
2023-11-02T23:39:04.756Z,9.85
2023-11-02T23:41:37.179Z,9.75
2023-11-02T23:44:07.320Z,9.67
2023-11-02T23:46:35.460Z,9.63
2023-11-02T23:49:03.708Z,9.63
2023-11-02T23:51:31.966Z,9.68
2023-11-02T23:54:00.193Z,9.72
2023-11-02T23:56:35.880Z,9.75
2023-11-02T23:59:04.151Z,9.81
